createdAt,value
2023-12-03T00:00:08.951Z,16.70
2023-12-03T00:03:13.805Z,21.77
2023-12-03T00:06:17.067Z,21.00
2023-12-03T00:09:21.515Z,19.75
2023-12-03T00:12:24.470Z,22.25
2023-12-03T00:15:27.364Z,22.40
2023-12-03T00:18:31.274Z,19.27
2023-12-03T00:21:34.422Z,20.35
2023-12-03T00:24:38.665Z,22.17
2023-12-03T00:27:41.749Z,20.58
2023-12-03T00:30:44.606Z,23.07
2023-12-03T00:33:48.969Z,20.17
2023-12-03T00:36:51.906Z,17.35
2023-12-03T00:39:56.116Z,17.13
2023-12-03T00:42:59.144Z,21.40
2023-12-03T00:46:03.822Z,17.40
2023-12-03T00:49:06.935Z,17.85
2023-12-03T00:52:09.769Z,17.25
2023-12-03T00:55:14.290Z,15.63
2023-12-03T00:58:17.193Z,19.25
2023-12-03T01:01:21.681Z,18.42
2023-12-03T01:04:24.459Z,15.10
2023-12-03T01:07:27.544Z,16.08
2023-12-03T01:10:32.429Z,18.03
2023-12-03T01:13:35.210Z,15.38
2023-12-03T01:16:38.089Z,14.30
2023-12-03T01:19:40.927Z,15.23
2023-12-03T01:22:43.938Z,13.45
2023-12-03T01:25:48.245Z,16.13
2023-12-03T01:28:51.160Z,14.05
2023-12-03T01:31:53.977Z,18.10
2023-12-03T01:34:56.793Z,14.32
2023-12-03T01:37:59.634Z,15.98
2023-12-03T01:41:03.809Z,14.27
2023-12-03T01:44:07.371Z,12.48
2023-12-03T01:47:10.588Z,12.65
2023-12-03T01:50:14.575Z,16.45
2023-12-03T01:53:19.086Z,13.43
2023-12-03T01:56:23.269Z,13.90
2023-12-03T01:59:26.715Z,13.98
2023-12-03T02:02:30.958Z,14.77
2023-12-03T02:05:34.080Z,12.35
2023-12-03T02:08:38.190Z,13.25
2023-12-03T02:11:42.762Z,14.63
2023-12-03T02:14:45.584Z,12.55
2023-12-03T02:17:48.965Z,13.15
2023-12-03T02:20:51.839Z,11.90
2023-12-03T02:23:56.086Z,12.40
2023-12-03T02:26:59.495Z,13.03
2023-12-03T02:30:03.018Z,13.48
2023-12-03T02:33:06.769Z,13.48
2023-12-03T02:36:10.730Z,13.10
2023-12-03T02:39:14.979Z,13.10
2023-12-03T02:42:17.978Z,12.57
2023-12-03T02:45:20.807Z,13.73
2023-12-03T02:48:24.992Z,13.02
2023-12-03T02:51:27.919Z,13.18
2023-12-03T02:54:32.189Z,13.48
2023-12-03T02:57:35.142Z,13.37
2023-12-03T03:00:38.226Z,13.13
2023-12-03T03:03:41.208Z,15.32
2023-12-03T03:06:44.050Z,13.55
2023-12-03T03:09:48.293Z,16.95
2023-12-03T03:12:51.098Z,14.37
2023-12-03T03:15:55.103Z,14.95
2023-12-03T03:18:58.101Z,13.68
2023-12-03T03:22:01.000Z,17.20
2023-12-03T03:25:05.979Z,16.60
2023-12-03T03:28:08.660Z,15.93
2023-12-03T03:31:11.684Z,13.55
2023-12-03T03:34:14.551Z,15.30
2023-12-03T03:37:18.700Z,13.32
2023-12-03T03:40:22.778Z,13.75
2023-12-03T03:43:25.593Z,15.33
2023-12-03T03:46:28.409Z,12.48
2023-12-03T03:49:31.400Z,14.95
2023-12-03T03:52:34.351Z,12.68
2023-12-03T03:55:38.599Z,13.27
2023-12-03T03:58:41.510Z,14.63
2023-12-03T04:01:45.268Z,13.23
2023-12-03T04:04:48.573Z,13.30
2023-12-03T04:07:51.340Z,13.10
2023-12-03T04:10:55.686Z,13.45
2023-12-03T04:13:58.416Z,13.03
2023-12-03T04:17:01.250Z,15.52
2023-12-03T04:20:05.676Z,14.85
2023-12-03T04:23:08.563Z,14.18
2023-12-03T04:26:13.631Z,16.23
2023-12-03T04:29:16.426Z,17.47
2023-12-03T04:32:19.220Z,16.45
2023-12-03T04:35:22.105Z,14.48
2023-12-03T04:38:24.800Z,14.52
2023-12-03T04:41:35.871Z,18.30
2023-12-03T04:44:38.591Z,17.50
2023-12-03T04:47:41.508Z,15.73
2023-12-03T04:50:44.395Z,17.40
2023-12-03T04:53:47.272Z,16.67
2023-12-03T04:56:51.432Z,15.48
2023-12-03T04:59:54.182Z,13.30
2023-12-03T05:02:56.967Z,15.93
2023-12-03T05:05:59.747Z,15.73
2023-12-03T05:09:02.647Z,17.55
2023-12-03T05:12:07.146Z,17.38
2023-12-03T05:15:11.855Z,16.93
2023-12-03T05:18:15.769Z,16.35
2023-12-03T05:21:18.630Z,15.90
2023-12-03T05:24:21.421Z,14.65
2023-12-03T05:27:25.732Z,18.10
2023-12-03T05:30:28.809Z,16.03
2023-12-03T05:33:32.159Z,17.48
2023-12-03T05:36:34.989Z,17.60
2023-12-03T05:39:39.566Z,16.10
2023-12-03T05:42:43.848Z,19.83
2023-12-03T05:45:46.705Z,16.57
2023-12-03T05:48:49.617Z,16.40
2023-12-03T05:51:52.834Z,18.27
2023-12-03T05:54:55.882Z,19.17
2023-12-03T05:58:00.156Z,18.75
2023-12-03T06:01:02.901Z,18.73
2023-12-03T06:04:08.777Z,18.02
2023-12-03T06:07:11.892Z,21.10
2023-12-03T06:10:14.806Z,19.60
2023-12-03T06:13:19.071Z,20.02
2023-12-03T06:16:22.288Z,14.30
2023-12-03T06:19:25.344Z,15.15
2023-12-03T06:22:28.167Z,16.98
2023-12-03T06:25:31.048Z,14.88
2023-12-03T06:28:35.146Z,16.73
2023-12-03T06:31:38.489Z,17.17
2023-12-03T06:34:41.665Z,17.38
2023-12-03T06:37:44.452Z,16.20
2023-12-03T06:40:47.729Z,15.82
2023-12-03T06:43:51.956Z,15.15
2023-12-03T06:46:54.663Z,16.90
2023-12-03T06:49:57.541Z,16.63
2023-12-03T06:53:00.426Z,17.75
2023-12-03T06:56:03.292Z,16.50
2023-12-03T06:59:07.992Z,15.93
2023-12-03T07:02:10.865Z,16.03
2023-12-03T07:05:13.986Z,16.63
2023-12-03T07:08:16.917Z,15.85
2023-12-03T07:11:19.827Z,15.43
2023-12-03T07:14:23.919Z,15.10
2023-12-03T07:17:26.685Z,17.70
2023-12-03T07:20:29.452Z,18.00
2023-12-03T07:23:32.163Z,17.00
2023-12-03T07:26:35.056Z,16.27
2023-12-03T07:29:39.268Z,18.23
2023-12-03T07:32:42.284Z,15.77
2023-12-03T07:35:45.204Z,16.23
2023-12-03T07:38:48.106Z,17.70
2023-12-03T07:41:52.417Z,17.13
2023-12-03T07:44:56.637Z,16.48
2023-12-03T07:47:59.399Z,17.90
2023-12-03T07:51:02.298Z,17.13
2023-12-03T07:54:05.522Z,16.92
2023-12-03T07:57:08.239Z,14.85
2023-12-03T08:00:13.598Z,18.27
2023-12-03T08:03:16.469Z,14.60
2023-12-03T08:06:19.324Z,14.38
2023-12-03T08:09:22.156Z,16.10
2023-12-03T08:12:25.094Z,16.88
2023-12-03T08:15:29.366Z,17.40
2023-12-03T08:18:32.614Z,19.23
2023-12-03T08:21:37.766Z,17.42
2023-12-03T08:24:40.738Z,16.88
2023-12-03T08:27:44.063Z,15.60
2023-12-03T08:30:48.846Z,15.90
2023-12-03T08:33:51.707Z,18.27
2023-12-03T08:36:54.689Z,16.48
2023-12-03T08:39:57.555Z,17.35
2023-12-03T08:43:00.414Z,16.00
2023-12-03T08:46:05.248Z,16.20
2023-12-03T08:49:08.090Z,19.03
2023-12-03T08:52:11.834Z,19.13
2023-12-03T08:55:14.620Z,16.42
2023-12-03T08:58:17.675Z,17.42
2023-12-03T09:01:22.327Z,18.58
2023-12-03T09:04:25.281Z,18.10
2023-12-03T09:07:31.852Z,19.95
2023-12-03T09:10:34.710Z,19.10
2023-12-03T09:13:37.416Z,18.60
2023-12-03T09:16:41.791Z,17.27
2023-12-03T09:19:44.630Z,16.43
2023-12-03T09:22:47.431Z,16.33
2023-12-03T09:25:50.184Z,16.35
2023-12-03T09:28:53.058Z,14.10
2023-12-03T09:31:57.360Z,15.40
2023-12-03T09:35:00.258Z,15.40
2023-12-03T09:38:02.964Z,14.40
2023-12-03T09:41:10.890Z,16.42
2023-12-03T09:44:22.118Z,16.55
2023-12-03T09:47:28.789Z,15.55
2023-12-03T09:50:32.192Z,18.23
2023-12-03T09:53:39.623Z,16.50
2023-12-03T09:56:44.155Z,17.38
2023-12-03T09:59:48.952Z,12.88
2023-12-03T10:02:55.345Z,15.75
2023-12-03T10:05:59.296Z,16.83
2023-12-03T10:09:04.026Z,15.82
2023-12-03T10:12:09.089Z,14.80
2023-12-03T10:15:12.848Z,15.15
2023-12-03T10:18:17.814Z,13.57
2023-12-03T10:21:20.677Z,14.70
2023-12-03T10:24:23.890Z,17.55
2023-12-03T10:27:30.547Z,15.75
2023-12-03T10:30:34.233Z,15.80
2023-12-03T10:33:39.657Z,18.23
2023-12-03T10:36:43.920Z,14.50
2023-12-03T10:39:47.045Z,14.75
2023-12-03T10:42:49.900Z,15.40
2023-12-03T10:45:55.423Z,14.40
2023-12-03T10:49:00.441Z,14.57
2023-12-03T10:52:04.472Z,15.37
2023-12-03T10:55:08.945Z,13.38
2023-12-03T10:58:15.447Z,14.30
2023-12-03T11:01:22.410Z,13.32
2023-12-03T11:04:37.510Z,13.48
2023-12-03T11:07:40.610Z,13.23
2023-12-03T11:10:45.827Z,17.13
2023-12-03T11:13:50.933Z,14.60
2023-12-03T11:17:05.052Z,14.57
2023-12-03T11:20:15.246Z,14.40
2023-12-03T11:23:34.914Z,13.50
2023-12-03T11:26:38.982Z,15.40
2023-12-03T11:29:49.493Z,15.07
2023-12-03T11:32:55.396Z,13.23
2023-12-03T11:36:01.257Z,14.43
2023-12-03T11:39:04.587Z,13.63
2023-12-03T11:42:07.386Z,14.48
2023-12-03T11:45:24.971Z,16.52
2023-12-03T11:48:30.761Z,14.40
2023-12-03T11:51:35.159Z,13.52
2023-12-03T11:54:40.924Z,14.83
2023-12-03T11:57:45.157Z,16.60
2023-12-03T12:00:48.473Z,14.60
2023-12-03T12:03:51.417Z,12.73
2023-12-03T12:06:56.972Z,16.13
2023-12-03T12:09:59.825Z,14.50
2023-12-03T12:13:06.239Z,15.73
2023-12-03T12:16:11.392Z,15.18
2023-12-03T12:19:15.188Z,13.25
2023-12-03T12:22:19.934Z,16.05
2023-12-03T12:25:23.773Z,13.47
2023-12-03T12:28:27.516Z,17.30
2023-12-03T12:31:30.860Z,16.30
2023-12-03T12:34:35.499Z,14.00
2023-12-03T12:37:41.210Z,14.35
2023-12-03T12:40:54.810Z,13.13
2023-12-03T12:43:59.191Z,14.55
2023-12-03T12:47:01.979Z,13.23
2023-12-03T12:50:05.988Z,15.70
2023-12-03T12:53:10.275Z,13.07
2023-12-03T12:56:13.342Z,15.90
2023-12-03T12:59:18.246Z,14.95
2023-12-03T13:02:22.242Z,15.20
2023-12-03T13:05:26.718Z,15.95
2023-12-03T13:08:30.964Z,13.10
2023-12-03T13:11:33.709Z,12.37
2023-12-03T13:14:36.948Z,11.82
2023-12-03T13:17:47.256Z,12.48
2023-12-03T13:20:50.376Z,13.77
2023-12-03T13:23:54.589Z,12.30
2023-12-03T13:26:57.485Z,14.77
2023-12-03T13:30:00.363Z,12.25
2023-12-03T13:36:23.542Z,12.80
2023-12-03T13:39:27.756Z,13.23
2023-12-03T13:42:31.358Z,13.47
2023-12-03T13:45:35.281Z,15.00
2023-12-03T13:48:38.287Z,15.65
2023-12-03T13:51:41.119Z,13.82
2023-12-03T13:54:45.924Z,15.07
2023-12-03T13:57:48.829Z,15.67
2023-12-03T14:00:51.696Z,12.55
2023-12-03T14:03:54.596Z,12.38
2023-12-03T14:06:57.558Z,13.77
2023-12-03T14:10:01.732Z,13.63
2023-12-03T14:13:04.752Z,13.20
2023-12-03T14:16:08.272Z,13.15
2023-12-03T14:19:14.180Z,11.98
2023-12-03T14:22:18.190Z,15.05
2023-12-03T14:25:22.468Z,12.90
2023-12-03T14:28:25.944Z,12.73
2023-12-03T14:31:31.456Z,13.73
2023-12-03T14:34:34.639Z,15.45
2023-12-03T14:37:37.500Z,14.15
2023-12-03T14:40:41.594Z,13.35
2023-12-03T14:43:44.409Z,14.80
2023-12-03T14:46:47.110Z,15.00
2023-12-03T14:49:49.837Z,16.17
2023-12-03T14:52:52.762Z,13.40
2023-12-03T14:55:56.969Z,13.48
2023-12-03T14:59:01.488Z,12.47
2023-12-03T15:02:04.482Z,15.30
2023-12-03T15:05:08.536Z,15.73
2023-12-03T15:08:11.372Z,14.65
2023-12-03T15:11:16.132Z,15.15
2023-12-03T15:14:18.910Z,17.20
2023-12-03T15:17:21.638Z,26.52
2023-12-03T15:20:24.591Z,16.60
2023-12-03T15:23:27.501Z,20.63
2023-12-03T15:26:31.587Z,18.25
2023-12-03T15:29:34.503Z,14.50
2023-12-03T15:32:37.367Z,14.90
2023-12-03T15:35:40.274Z,14.95
2023-12-03T15:38:43.034Z,12.82
2023-12-03T15:41:47.121Z,13.25
2023-12-03T15:44:49.865Z,13.30
2023-12-03T15:47:53.157Z,14.80
2023-12-03T15:50:57.128Z,14.05
2023-12-03T15:54:00.395Z,12.48
2023-12-03T15:57:04.694Z,15.48
2023-12-03T16:00:09.613Z,12.47
2023-12-03T16:03:13.035Z,13.23
2023-12-03T16:06:15.816Z,14.75
2023-12-03T16:09:18.532Z,14.07
2023-12-03T16:12:23.749Z,13.90
2023-12-03T16:15:27.201Z,12.73
2023-12-03T16:18:30.127Z,13.60
2023-12-03T16:21:33.200Z,11.95
2023-12-03T16:24:36.110Z,13.13
2023-12-03T16:27:42.150Z,14.07
2023-12-03T16:30:45.147Z,17.00
2023-12-03T16:33:48.351Z,15.20
2023-12-03T16:36:51.285Z,14.50
2023-12-03T16:39:54.184Z,14.48
2023-12-03T16:42:58.423Z,15.15
2023-12-03T16:46:01.427Z,16.33
2023-12-03T16:49:04.732Z,16.38
2023-12-03T16:52:07.752Z,14.20
2023-12-03T16:55:11.067Z,17.85
2023-12-03T16:58:15.338Z,17.98
2023-12-03T17:01:18.174Z,15.97
2023-12-03T17:04:23.264Z,14.02
2023-12-03T17:07:26.250Z,16.33
2023-12-03T17:10:31.260Z,13.38
2023-12-03T17:13:35.565Z,13.63
2023-12-03T17:16:39.206Z,13.43
2023-12-03T17:19:41.975Z,14.40
2023-12-03T17:22:44.865Z,14.43
2023-12-03T17:25:48.212Z,13.45
2023-12-03T17:28:53.385Z,12.73
2023-12-03T17:31:56.123Z,13.50
2023-12-03T17:34:59.087Z,13.52
2023-12-03T17:38:02.058Z,15.02
2023-12-03T17:41:05.307Z,14.85
2023-12-03T17:44:09.996Z,11.70
2023-12-03T17:47:12.983Z,16.02
2023-12-03T17:50:15.818Z,14.95
2023-12-03T17:53:19.477Z,13.98
2023-12-03T17:56:22.416Z,16.05
2023-12-03T17:59:26.678Z,16.47
2023-12-03T18:02:29.949Z,18.00
2023-12-03T18:05:33.160Z,18.45
2023-12-03T18:08:36.179Z,18.90
2023-12-03T18:11:43.039Z,20.95
2023-12-03T18:14:50.070Z,22.90
2023-12-03T18:17:54.367Z,21.10
2023-12-03T18:20:58.646Z,27.75
2023-12-03T18:24:01.579Z,21.83
2023-12-03T18:27:04.599Z,24.45
2023-12-03T18:30:10.405Z,25.73
2023-12-03T18:33:15.870Z,30.45
2023-12-03T18:36:20.478Z,24.75
2023-12-03T18:39:23.737Z,24.52
2023-12-03T18:42:27.883Z,24.02
2023-12-03T18:45:32.016Z,24.10
2023-12-03T18:48:35.178Z,26.23
2023-12-03T18:51:37.991Z,25.60
2023-12-03T18:54:43.361Z,24.20
2023-12-03T18:57:46.961Z,23.80
2023-12-03T19:00:52.008Z,20.83
2023-12-03T19:03:54.750Z,22.02
2023-12-03T19:06:57.839Z,24.83
2023-12-03T19:10:00.965Z,23.27
2023-12-03T19:13:10.906Z,22.98
2023-12-03T19:16:21.184Z,23.17
2023-12-03T19:19:24.114Z,22.77
2023-12-03T19:22:28.128Z,26.17
2023-12-03T19:25:32.529Z,26.50
2023-12-03T19:28:35.374Z,24.58
2023-12-03T19:31:43.217Z,26.37
2023-12-03T19:34:46.013Z,20.55
2023-12-03T19:37:48.790Z,21.20
2023-12-03T19:40:51.508Z,22.48
2023-12-03T19:43:54.257Z,22.83
2023-12-03T19:46:58.479Z,25.27
2023-12-03T19:50:01.196Z,23.02
2023-12-03T19:53:05.040Z,23.35
2023-12-03T19:56:08.478Z,22.58
2023-12-03T19:59:11.163Z,25.77
2023-12-03T20:02:15.384Z,24.23
2023-12-03T20:05:18.437Z,23.08
2023-12-03T20:08:22.960Z,22.38
2023-12-03T20:11:25.713Z,21.92
2023-12-03T20:14:28.600Z,21.40
2023-12-03T20:17:33.298Z,21.40
2023-12-03T20:20:36.706Z,21.83
2023-12-03T20:23:39.440Z,25.25
2023-12-03T20:26:42.623Z,25.33
2023-12-03T20:29:45.598Z,24.73
2023-12-03T20:32:51.492Z,27.20
2023-12-03T20:35:54.710Z,28.45
2023-12-03T20:38:57.556Z,29.20
2023-12-03T20:42:01.267Z,27.48
2023-12-03T20:45:04.596Z,26.15
2023-12-03T20:48:09.054Z,26.20
2023-12-03T20:51:12.832Z,25.55
2023-12-03T20:54:15.717Z,26.02
2023-12-03T20:57:18.501Z,24.20
2023-12-03T21:00:21.586Z,27.65
2023-12-03T21:03:25.951Z,24.57
2023-12-03T21:06:28.896Z,23.77
2023-12-03T21:09:31.919Z,24.60
2023-12-03T21:12:35.051Z,23.33
2023-12-03T21:15:38.070Z,26.67
2023-12-03T21:18:45.468Z,27.97
2023-12-03T21:21:48.308Z,28.30
2023-12-03T21:24:51.195Z,31.70
2023-12-03T21:27:54.585Z,25.85
2023-12-03T21:30:57.661Z,27.27
2023-12-03T21:34:01.853Z,28.73
2023-12-03T21:37:07.107Z,25.67
2023-12-03T21:40:11.053Z,23.67
2023-12-03T21:43:14.054Z,27.40
2023-12-03T21:46:17.157Z,24.73
2023-12-03T21:49:21.442Z,25.37
2023-12-03T21:52:25.566Z,27.42
2023-12-03T21:55:29.062Z,27.58
2023-12-03T21:58:33.418Z,29.45
2023-12-03T22:01:37.575Z,27.17
2023-12-03T22:04:41.709Z,26.53
2023-12-03T22:07:44.622Z,25.58
2023-12-03T22:10:48.523Z,27.10
2023-12-03T22:13:51.357Z,31.05
2023-12-03T22:16:54.054Z,25.45
2023-12-03T22:19:58.444Z,27.07
2023-12-03T22:23:01.198Z,29.25
2023-12-03T22:26:04.029Z,27.05
2023-12-03T22:29:06.792Z,28.73
2023-12-03T22:32:09.764Z,24.85
2023-12-03T22:35:14.216Z,25.17
2023-12-03T22:38:16.949Z,27.13
2023-12-03T22:41:21.601Z,26.98
2023-12-03T22:44:24.762Z,25.85
2023-12-03T22:47:29.074Z,27.00
2023-12-03T22:50:33.869Z,24.20
2023-12-03T22:53:37.201Z,22.15
2023-12-03T22:56:40.038Z,24.40
2023-12-03T22:59:44.392Z,21.13
2023-12-03T23:02:47.090Z,25.13
2023-12-03T23:05:51.311Z,22.70
2023-12-03T23:08:54.037Z,20.38
2023-12-03T23:11:56.859Z,25.70
2023-12-03T23:14:59.625Z,19.48
2023-12-03T23:18:02.745Z,24.98
2023-12-03T23:21:07.487Z,24.53
2023-12-03T23:27:30.468Z,25.75
2023-12-03T23:30:33.509Z,27.98
2023-12-03T23:33:36.565Z,25.80
2023-12-03T23:36:42.468Z,22.20
2023-12-03T23:39:45.281Z,21.88
2023-12-03T23:42:48.149Z,22.13
2023-12-03T23:45:51.044Z,22.15
2023-12-03T23:48:53.866Z,23.17
2023-12-03T23:51:58.180Z,19.03
2023-12-03T23:55:01.148Z,23.23
2023-12-03T23:58:04.205Z,23.48
